map of SNN home
SNN - Airport
Location
City:  Shannon, County Clare, Munster, Ireland
Near (Alt.):Limerick
Name:Shannon International Airport
ICAO:EINN
IATA:SNN

Details
Type:Airport (Aerodrome, Airfield)
Use:International (customs port of entry)
Latitude:5242'07"N (52.701978)
Longitude:855'29"W (-8.924816)
Elevation:46 ft (14 m)
Variation:3.95W (WMM2015 magnetic declination)
0.17 annual change
Runways:5
Longest:10495 × 148 ft (3199 × 45 m), paved

Time
Time Zone:UTC+0 (DST+1)
Local Time:

Weather
METAR:EINN 140930Z 28015KT 9999 FEW013 SCT019CB BKN180 04/03 Q0990 RERA NOSIG
TAF:EINN 131700Z 1318/1418 28022G35KT 9999 SCT018
TEMPO 1318/1324 29027G45KT
TEMPO 1318/1418 SHRAGS SCT018CB
TEMPO 1318/1320 4000 BKN010 BKN018CB

Related Locations
Nearby:
Farthest:SZS: 12008 mi / 19325 km
Ryan's Creek, Stewart Island, STL, NZ

Find:

   beyond  
but within

Other Information
Maps:
NOTAMs:
Links:
Sources:

  
flag of Ireland
flag of Munster
  

Sectional Chart

Flight Planning
at skyvector.com

Satellite Image

Google Maps Satellite view

 

Copyright © 2004-2017 Karl L. Swartz. All rights reserved.
The Great Circle Mapper name and logo are trademarks of the Great Circle Mapper.
All other trademarks mentioned herein belong to their respective owners.
Please see credits for attibutions and further copyright information.

  Follow gcmap on Facebook Follow gcmap on Twitter Follow gcmap on Google+ GCmap on LinkedIn

hCard Microformat

Geo Microformat